Time;durP1;ratioP1;P1;durP2;ratioP2;P2;SDS_P1;SDS_P2;PMS_P1;PMS_P2;Temp;Humidity;BMP_temperature;BMP_pressure;BME280_temperature;BME280_humidity;BME280_pressure;Samples;Min_cycle;Max_cycle;Signal;HPM_P1;HPM_P2
2023/08/05 00:00:10;;;;;;;3.72;2.72;;;18.50;99.90;;;;;;5014567;28;20217;-73
2023/08/05 00:02:36;;;;;;;4.72;3.15;;;18.40;99.90;;;;;;5015104;28;20251;-73
2023/08/05 00:05:02;;;;;;;6.82;4.25;;;18.40;99.90;;;;;;5004623;28;20827;-73
2023/08/05 00:07:27;;;;;;;9.20;4.55;;;18.40;99.90;;;;;;5003956;28;20200;-73
2023/08/05 00:09:53;;;;;;;5.20;2.90;;;18.40;99.90;;;;;;5005582;28;20254;-73
2023/08/05 00:12:18;;;;;;;6.47;3.97;;;18.40;99.90;;;;;;5005587;28;20292;-74
2023/08/05 00:14:44;;;;;;;5.60;3.40;;;18.30;99.90;;;;;;5006919;28;20262;-73
2023/08/05 00:17:10;;;;;;;5.50;3.25;;;18.30;99.90;;;;;;5003947;28;20204;-74
2023/08/05 00:19:35;;;;;;;5.18;3.13;;;18.30;99.90;;;;;;5003878;28;20185;-75
2023/08/05 00:22:01;;;;;;;4.72;3.22;;;18.30;99.90;;;;;;5003006;28;20752;-74
2023/08/05 00:24:27;;;;;;;4.45;3.22;;;18.30;99.90;;;;;;5008898;28;20823;-74
2023/08/05 00:26:52;;;;;;;4.13;3.47;;;18.20;99.90;;;;;;5005683;28;20698;-72
2023/08/05 00:29:18;;;;;;;4.57;2.92;;;18.20;99.90;;;;;;5003987;28;20210;-72
2023/08/05 00:31:43;;;;;;;6.38;3.10;;;18.20;99.90;;;;;;5004593;28;20253;-74
2023/08/05 00:34:09;;;;;;;6.28;3.38;;;18.20;99.90;;;;;;5004142;28;20188;-74
2023/08/05 00:36:34;;;;;;;5.03;2.70;;;18.10;99.90;;;;;;5011687;28;20198;-73
2023/08/05 00:39:00;;;;;;;4.70;2.60;;;18.20;99.90;;;;;;5005878;28;20296;-73
2023/08/05 00:41:26;;;;;;;5.70;2.90;;;18.10;99.90;;;;;;5018696;28;20223;-75
2023/08/05 00:43:51;;;;;;;3.40;3.00;;;18.10;99.90;;;;;;5006453;28;20207;-74
2023/08/05 00:46:18;;;;;;;4.57;2.88;;;18.10;99.90;;;;;;5006051;28;20247;-74
2023/08/05 00:48:44;;;;;;;4.47;2.95;;;18.10;99.90;;;;;;5007740;28;20221;-72
2023/08/05 00:51:11;;;;;;;7.18;3.13;;;18.10;99.90;;;;;;5010962;28;20216;-72
2023/08/05 00:53:37;;;;;;;3.13;2.55;;;18.10;99.90;;;;;;5007013;28;20722;-74
2023/08/05 00:56:03;;;;;;;4.03;2.80;;;18.10;99.90;;;;;;5010733;28;20236;-73
2023/08/05 00:58:31;;;;;;;3.95;2.70;;;18.10;99.90;;;;;;5006952;28;20209;-73
2023/08/05 01:00:57;;;;;;;3.55;2.63;;;18.10;99.90;;;;;;5016955;28;20235;-75
2023/08/05 01:03:23;;;;;;;3.78;2.47;;;18.10;99.90;;;;;;5009836;28;20228;-73
2023/08/05 01:05:52;;;;;;;5.90;2.88;;;18.10;99.90;;;;;;5010652;28;20709;-74
2023/08/05 01:08:20;;;;;;;4.63;3.08;;;18.00;99.90;;;;;;5006152;28;20816;-75
2023/08/05 01:10:46;;;;;;;3.17;2.60;;;17.90;99.90;;;;;;5008085;28;20185;-73
2023/08/05 01:13:12;;;;;;;4.80;3.05;;;17.90;99.90;;;;;;5009248;28;20189;-73
2023/08/05 01:15:37;;;;;;;8.02;3.15;;;17.90;99.90;;;;;;5011847;28;20566;-74
2023/08/05 01:18:05;;;;;;;3.90;2.78;;;17.90;99.90;;;;;;5009192;28;20213;-74
2023/08/05 01:20:39;;;;;;;3.90;2.80;;;17.90;99.90;;;;;;5009782;28;20205;-74
2023/08/05 01:23:18;;;;;;;5.13;3.28;;;17.90;99.90;;;;;;5007105;28;20213;-73
2023/08/05 01:25:45;;;;;;;6.50;3.50;;;17.90;99.90;;;;;;5007322;28;20189;-73
2023/08/05 01:28:12;;;;;;;3.85;2.50;;;17.90;99.90;;;;;;5016555;28;20173;-74
2023/08/05 01:30:40;;;;;;;6.13;2.92;;;17.90;99.90;;;;;;5008599;28;20585;-73
2023/08/05 01:33:07;;;;;;;4.63;2.67;;;17.80;99.90;;;;;;5002262;28;20217;-74
2023/08/05 01:35:32;;;;;;;6.72;3.40;;;17.80;99.90;;;;;;5003813;28;20209;-73
2023/08/05 01:37:58;;;;;;;3.55;3.05;;;17.80;99.90;;;;;;5009240;28;20274;-73
2023/08/05 01:40:28;;;;;;;4.05;2.83;;;17.70;99.90;;;;;;5008430;28;20594;-74
2023/08/05 01:42:58;;;;;;;4.50;2.83;;;17.70;99.90;;;;;;5008250;28;20625;-74
2023/08/05 01:45:24;;;;;;;5.07;2.88;;;17.70;99.90;;;;;;5001085;28;20213;-73
2023/08/05 01:47:50;;;;;;;3.65;2.55;;;17.60;99.90;;;;;;5011052;28;20205;-74
2023/08/05 01:50:16;;;;;;;4.10;2.30;;;17.50;99.90;;;;;;5009515;28;20580;-73
2023/08/05 01:52:42;;;;;;;4.20;2.42;;;17.50;99.90;;;;;;5007498;28;20188;-74
2023/08/05 01:55:07;;;;;;;3.63;2.63;;;17.50;99.90;;;;;;5008542;28;20292;-72
2023/08/05 01:57:33;;;;;;;5.85;2.42;;;17.50;99.90;;;;;;5015652;28;20232;-73
2023/08/05 01:59:59;;;;;;;6.10;3.00;;;17.50;99.90;;;;;;5010684;28;20201;-74
2023/08/05 02:02:24;;;;;;;4.60;2.70;;;17.50;99.90;;;;;;5009485;28;20899;-72
2023/08/05 02:04:50;;;;;;;7.20;3.33;;;17.60;99.90;;;;;;5007329;28;20205;-75
2023/08/05 02:07:15;;;;;;;3.92;2.80;;;17.50;99.90;;;;;;5013145;28;20189;-73
2023/08/05 02:09:41;;;;;;;4.05;2.65;;;17.50;99.90;;;;;;5016421;28;20671;-74
2023/08/05 02:12:07;;;;;;;3.63;2.28;;;17.50;99.90;;;;;;5009627;28;20208;-73
2023/08/05 02:14:32;;;;;;;3.90;2.55;;;17.40;99.90;;;;;;5008635;28;20217;-73
2023/08/05 02:16:58;;;;;;;3.35;2.60;;;17.40;99.90;;;;;;5011786;28;20251;-73
2023/08/05 02:19:23;;;;;;;4.68;2.20;;;17.30;99.90;;;;;;5010845;28;20173;-73
2023/08/05 02:21:49;;;;;;;3.25;2.50;;;17.30;99.90;;;;;;5012111;28;20209;-74
2023/08/05 02:24:15;;;;;;;4.35;2.17;;;17.30;99.90;;;;;;5011864;28;20763;-73
2023/08/05 02:26:41;;;;;;;3.40;2.72;;;17.30;99.90;;;;;;5012292;28;20295;-71
2023/08/05 02:29:07;;;;;;;3.60;2.67;;;17.30;99.90;;;;;;5013395;28;20285;-72
2023/08/05 02:31:33;;;;;;;3.25;2.15;;;17.30;99.90;;;;;;5015158;28;20181;-73
2023/08/05 02:33:58;;;;;;;3.80;2.50;;;17.20;99.90;;;;;;5012342;28;20197;-73
2023/08/05 02:36:24;;;;;;;6.35;2.60;;;17.20;99.90;;;;;;5006508;28;20209;-75
2023/08/05 02:38:50;;;;;;;3.55;2.28;;;17.10;99.90;;;;;;5007018;28;20338;-74
2023/08/05 02:41:15;;;;;;;5.47;2.47;;;17.10;99.90;;;;;;5022587;28;20292;-73
2023/08/05 02:43:41;;;;;;;3.28;2.88;;;17.10;99.90;;;;;;5008396;28;20177;-72
2023/08/05 02:46:07;;;;;;;5.88;2.35;;;17.10;99.90;;;;;;5009893;28;20197;-74
2023/08/05 02:48:33;;;;;;;4.85;3.10;;;17.10;99.90;;;;;;5009380;28;20677;-73
2023/08/05 02:50:58;;;;;;;5.45;3.10;;;17.10;99.90;;;;;;5007621;28;20218;-74
2023/08/05 02:53:24;;;;;;;2.72;2.45;;;17.00;99.90;;;;;;5011664;28;20614;-73
2023/08/05 02:55:50;;;;;;;4.40;2.83;;;17.10;99.90;;;;;;5011107;28;20235;-74
2023/08/05 02:58:16;;;;;;;2.85;2.45;;;17.10;99.90;;;;;;5011275;28;20254;-74
2023/08/05 03:00:42;;;;;;;3.25;2.95;;;16.90;99.90;;;;;;5011404;28;20205;-75
2023/08/05 03:03:08;;;;;;;4.60;2.92;;;17.00;99.90;;;;;;5009442;28;20613;-72
2023/08/05 03:05:34;;;;;;;5.47;2.60;;;17.00;99.90;;;;;;5015635;28;20713;-74
2023/08/05 03:08:00;;;;;;;3.25;2.70;;;16.90;99.90;;;;;;5008480;28;20246;-73
2023/08/05 03:10:26;;;;;;;4.68;3.08;;;16.90;99.90;;;;;;5009275;28;20184;-73
2023/08/05 03:12:51;;;;;;;6.55;2.97;;;16.90;99.90;;;;;;5010697;28;20204;-77
2023/08/05 03:15:17;;;;;;;4.95;2.90;;;16.80;99.90;;;;;;5021827;28;20212;-73
2023/08/05 03:17:43;;;;;;;3.58;2.85;;;16.70;99.90;;;;;;5015815;28;20261;-73
2023/08/05 03:20:30;;;;;;;4.55;2.63;;;16.80;99.90;;;;;;5009803;28;20686;-73
2023/08/05 03:22:56;;;;;;;6.60;3.17;;;16.80;99.90;;;;;;5007132;28;20248;-77
2023/08/05 03:25:23;;;;;;;7.07;3.35;;;16.70;99.90;;;;;;5018873;28;20267;-73
2023/08/05 03:27:49;;;;;;;5.70;3.45;;;16.80;99.90;;;;;;5007339;28;20201;-74
2023/08/05 03:30:15;;;;;;;4.57;3.30;;;16.70;99.90;;;;;;5012084;28;20303;-74
2023/08/05 03:32:41;;;;;;;4.65;3.15;;;16.70;99.90;;;;;;5010730;28;20205;-75
2023/08/05 03:35:07;;;;;;;5.93;3.05;;;16.70;99.90;;;;;;5009794;28;20208;-76
2023/08/05 03:37:33;;;;;;;4.65;3.50;;;16.70;99.90;;;;;;5006611;28;20339;-73
2023/08/05 03:39:58;;;;;;;5.20;2.88;;;16.70;99.90;;;;;;5006654;28;20232;-73
2023/08/05 03:42:25;;;;;;;5.15;3.03;;;16.70;99.90;;;;;;5025812;28;20209;-73
2023/08/05 03:44:51;;;;;;;4.72;3.05;;;16.70;99.90;;;;;;5007149;28;20672;-75
2023/08/05 03:47:16;;;;;;;4.45;3.00;;;16.70;99.90;;;;;;5024217;28;20212;-74
2023/08/05 03:49:42;;;;;;;3.83;2.58;;;16.70;99.90;;;;;;5020330;28;20169;-73
2023/08/05 03:52:09;;;;;;;5.65;4.72;;;16.70;99.90;;;;;;5016623;28;20180;-72
2023/08/05 03:54:34;;;;;;;7.47;4.68;;;16.80;99.90;;;;;;5009647;28;20740;-73
2023/08/05 03:57:02;;;;;;;6.13;3.73;;;16.80;99.90;;;;;;5006427;28;20443;-73
2023/08/05 03:59:28;;;;;;;6.63;3.50;;;16.70;99.90;;;;;;5016673;28;20240;-73
2023/08/05 04:01:54;;;;;;;5.15;3.38;;;16.90;99.90;;;;;;5009689;28;20207;-73
2023/08/05 04:04:19;;;;;;;5.03;3.33;;;17.00;99.90;;;;;;5017238;28;20173;-74
2023/08/05 04:06:45;;;;;;;6.65;3.47;;;17.60;99.90;;;;;;5010441;28;20212;-73
2023/08/05 04:09:12;;;;;;;6.30;4.07;;;18.20;99.90;;;;;;5009154;28;20562;-73
2023/08/05 04:11:37;;;;;;;7.10;3.50;;;18.50;99.90;;;;;;5009222;28;20675;-73
2023/08/05 04:14:04;;;;;;;8.25;3.45;;;19.00;99.90;;;;;;5012351;28;20208;-73
2023/08/05 04:16:30;;;;;;;8.95;3.58;;;20.00;99.90;;;;;;5024856;28;20235;-74
2023/08/05 04:18:57;;;;;;;6.97;3.35;;;21.20;99.90;;;;;;5006860;28;20684;-74
2023/08/05 04:21:27;;;;;;;4.28;2.65;;;22.30;99.90;;;;;;5008295;28;20713;-75
2023/08/05 04:23:54;;;;;;;5.75;3.22;;;22.80;99.90;;;;;;5008020;28;20201;-71
2023/08/05 04:26:20;;;;;;;4.90;3.03;;;23.10;99.90;;;;;;5024219;28;20211;-73
2023/08/05 04:28:46;;;;;;;5.15;3.03;;;22.40;99.90;;;;;;5006124;28;20178;-73
2023/08/05 04:31:12;;;;;;;5.63;2.78;;;21.80;99.90;;;;;;5010629;28;20192;-73
2023/08/05 04:33:37;;;;;;;7.45;3.13;;;21.30;99.90;;;;;;5016713;28;20201;-74
2023/08/05 04:36:03;;;;;;;7.10;3.58;;;20.70;99.90;;;;;;5014561;28;20208;-73
2023/08/05 04:38:29;;;;;;;6.45;4.32;;;20.60;99.90;;;;;;5006065;28;20691;-73
2023/08/05 04:40:54;;;;;;;7.28;3.63;;;20.40;99.90;;;;;;5006604;28;20170;-73
2023/08/05 04:43:20;;;;;;;7.65;3.65;;;20.10;99.90;;;;;;5009798;28;20184;-74
2023/08/05 04:45:50;;;;;;;6.70;3.10;;;21.40;99.90;;;;;;5009577;28;20760;-72
2023/08/05 04:48:16;;;;;;;5.78;2.70;;;23.10;99.90;;;;;;5007275;28;20205;-73
2023/08/05 04:50:42;;;;;;;6.03;3.53;;;24.20;99.90;;;;;;5006481;28;20255;-75
2023/08/05 04:53:08;;;;;;;6.32;3.20;;;25.50;99.90;;;;;;5005641;28;20198;-71
2023/08/05 04:55:33;;;;;;;6.07;3.25;;;26.30;99.90;;;;;;5024581;28;20599;-73
2023/08/05 04:57:59;;;;;;;5.43;2.90;;;27.10;99.90;;;;;;5007810;28;20237;-73
2023/08/05 05:00:25;;;;;;;6.22;3.35;;;27.40;99.90;;;;;;5006740;28;20284;-75
2023/08/05 05:02:51;;;;;;;5.50;2.67;;;27.70;99.90;;;;;;5007175;28;20250;-73
2023/08/05 05:05:17;;;;;;;4.85;2.78;;;28.30;99.90;;;;;;5005864;28;20213;-74
2023/08/05 05:07:43;;;;;;;4.00;2.83;;;28.20;99.90;;;;;;5006811;28;20177;-75
2023/08/05 05:10:09;;;;;;;4.95;2.85;;;27.70;99.90;;;;;;5006469;28;20182;-73
2023/08/05 05:12:34;;;;;;;4.32;2.30;;;27.50;99.90;;;;;;5005654;28;20213;-74
2023/08/05 05:15:00;;;;;;;5.82;2.55;;;27.50;99.90;;;;;;5009899;28;20213;-74
2023/08/05 05:17:32;;;;;;;5.25;2.50;;;27.40;99.90;;;;;;5015921;28;20209;-74
2023/08/05 05:19:57;;;;;;;5.80;2.58;;;27.80;99.90;;;;;;5013646;28;20205;-70
2023/08/05 05:22:23;;;;;;;3.42;2.78;;;27.40;99.90;;;;;;5008747;28;20539;-74
2023/08/05 05:24:50;;;;;;;7.40;2.50;;;27.90;99.90;;;;;;5013379;28;20292;-73
2023/08/05 05:27:17;;;;;;;5.22;2.63;;;27.90;99.90;;;;;;5011437;28;20201;-72
2023/08/05 05:29:44;;;;;;;6.03;2.50;;;27.30;99.90;;;;;;5007351;28;20236;-72
2023/08/05 05:32:10;;;;;;;3.90;2.80;;;27.30;99.90;;;;;;5008184;28;20213;-72
2023/08/05 05:34:36;;;;;;;4.60;2.40;;;27.10;99.90;;;;;;5012181;28;20197;-73
2023/08/05 05:37:01;;;;;;;3.30;2.00;;;27.10;99.90;;;;;;5027516;28;20209;-73
2023/08/05 05:39:28;;;;;;;4.38;2.20;;;27.10;99.90;;;;;;5008609;28;20679;-71
2023/08/05 05:41:55;;;;;;;4.75;2.65;;;26.90;99.90;;;;;;5010469;28;20279;-73
2023/08/05 05:44:24;;;;;;;3.00;2.10;;;27.00;99.90;;;;;;5010582;28;20193;-73
2023/08/05 05:46:50;;;;;;;3.50;2.30;;;26.80;99.90;;;;;;5010415;28;20533;-73
2023/08/05 05:49:15;;;;;;;3.80;2.17;;;26.90;99.90;;;;;;5020605;28;20166;-72
2023/08/05 05:51:45;;;;;;;2.95;2.50;;;27.50;99.90;;;;;;5010465;28;20205;-73
2023/08/05 05:54:11;;;;;;;3.08;2.28;;;28.40;99.90;;;;;;5019981;28;20560;-72
2023/08/05 05:56:37;;;;;;;4.97;2.70;;;29.00;99.90;;;;;;5012746;28;20209;-74
2023/08/05 05:59:02;;;;;;;3.03;2.05;;;29.80;99.90;;;;;;5011539;28;20228;-74
2023/08/05 06:01:28;;;;;;;3.42;2.20;;;29.80;99.90;;;;;;5025877;28;20196;-75
2023/08/05 06:03:54;;;;;;;5.38;2.25;;;30.60;99.90;;;;;;5030933;28;20213;-74
2023/08/05 06:06:19;;;;;;;8.27;2.47;;;31.20;99.90;;;;;;5011341;28;20304;-74
2023/08/05 06:08:45;;;;;;;3.15;2.17;;;31.40;99.90;;;;;;5007334;28;20238;-74
2023/08/05 06:11:11;;;;;;;4.63;2.08;;;31.90;99.90;;;;;;5028016;28;20206;-74
2023/08/05 06:13:36;;;;;;;3.08;2.17;;;31.60;99.90;;;;;;5027141;28;20288;-74
2023/08/05 06:16:02;;;;;;;5.30;2.20;;;30.70;99.90;;;;;;5011343;28;20263;-76
2023/08/05 06:18:28;;;;;;;4.07;2.03;;;29.70;99.90;;;;;;5008435;28;20266;-73
2023/08/05 06:20:53;;;;;;;3.70;2.22;;;28.50;99.90;;;;;;5011290;28;20220;-73
2023/08/05 06:23:19;;;;;;;3.38;2.20;;;29.00;99.90;;;;;;5019427;28;20639;-75
2023/08/05 06:25:45;;;;;;;3.40;2.35;;;29.00;99.90;;;;;;5010013;28;20199;-74
2023/08/05 06:28:11;;;;;;;3.90;2.47;;;28.80;99.90;;;;;;5018061;28;20586;-74
2023/08/05 06:30:43;;;;;;;4.10;1.95;;;28.60;99.90;;;;;;5007587;28;20204;-73
2023/08/05 06:33:08;;;;;;;6.20;2.58;;;28.30;99.90;;;;;;5009048;28;20560;-73
2023/08/05 06:35:34;;;;;;;4.88;2.00;;;27.70;99.90;;;;;;5024352;28;20228;-73
2023/08/05 06:38:00;;;;;;;5.60;2.33;;;27.00;99.90;;;;;;5010488;28;20217;-73
2023/08/05 06:40:26;;;;;;;5.90;2.30;;;26.90;99.90;;;;;;5010422;28;20208;-74
2023/08/05 06:42:51;;;;;;;6.35;1.90;;;26.90;99.90;;;;;;5008265;28;20632;-74
2023/08/05 06:45:17;;;;;;;3.40;1.90;;;27.10;99.90;;;;;;5009643;28;20220;-73
2023/08/05 06:47:43;;;;;;;3.15;2.00;;;26.90;99.90;;;;;;5009971;28;20212;-73
2023/08/05 06:50:09;;;;;;;5.85;2.17;;;26.40;99.90;;;;;;5009902;28;20232;-73
2023/08/05 06:52:35;;;;;;;4.38;2.08;;;26.10;99.90;;;;;;5007382;28;20205;-74
2023/08/05 06:55:03;;;;;;;5.97;2.10;;;25.70;99.90;;;;;;5010493;28;20231;-73
2023/08/05 06:57:32;;;;;;;3.75;2.15;;;25.40;99.90;;;;;;5010437;28;20698;-73
2023/08/05 06:59:58;;;;;;;4.43;2.10;;;25.20;99.90;;;;;;5004359;28;20204;-73
2023/08/05 07:02:25;;;;;;;4.10;2.15;;;24.90;99.90;;;;;;5010913;28;20216;-73
2023/08/05 07:04:52;;;;;;;5.05;2.22;;;24.50;99.90;;;;;;5007238;28;20201;-73
2023/08/05 07:07:18;;;;;;;5.43;3.00;;;24.10;99.90;;;;;;5015201;28;20218;-73
2023/08/05 07:09:43;;;;;;;5.82;2.38;;;23.80;99.90;;;;;;5009923;28;20300;-73
2023/08/05 07:12:09;;;;;;;5.63;2.33;;;23.40;99.90;;;;;;5018263;28;20201;-73
2023/08/05 07:14:35;;;;;;;7.38;2.40;;;23.30;99.90;;;;;;5003146;28;20204;-74
2023/08/05 07:17:00;;;;;;;5.22;2.45;;;23.30;99.90;;;;;;5008094;28;20203;-74
2023/08/05 07:19:26;;;;;;;7.82;3.08;;;23.40;99.90;;;;;;5008352;28;20279;-72
2023/08/05 07:21:52;;;;;;;7.50;2.83;;;23.40;99.90;;;;;;5006271;28;20206;-74
2023/08/05 07:24:18;;;;;;;4.78;2.92;;;23.00;99.90;;;;;;4999731;28;20212;-73
2023/08/05 07:26:44;;;;;;;6.32;2.20;;;22.90;99.90;;;;;;5003708;28;20205;-73
2023/08/05 07:29:09;;;;;;;4.20;2.10;;;23.00;99.90;;;;;;5003348;28;20201;-71
2023/08/05 07:31:36;;;;;;;3.88;2.53;;;22.90;99.90;;;;;;5004301;28;20162;-73
2023/08/05 07:34:04;;;;;;;5.18;2.45;;;22.90;99.90;;;;;;5016839;28;20177;-74
2023/08/05 07:36:30;;;;;;;3.50;2.25;;;22.80;99.90;;;;;;5006292;28;20205;-74
2023/08/05 07:38:57;;;;;;;4.47;2.47;;;22.70;99.90;;;;;;5002644;28;20642;-73
2023/08/05 07:41:26;;;;;;;5.15;2.72;;;22.80;99.90;;;;;;5005827;28;20307;-74
2023/08/05 07:43:54;;;;;;;6.90;3.05;;;22.80;99.90;;;;;;5008867;28;20181;-73
2023/08/05 07:46:20;;;;;;;4.05;2.58;;;22.60;99.90;;;;;;5009005;28;20655;-73
2023/08/05 07:48:49;;;;;;;8.10;2.65;;;22.60;99.90;;;;;;5010013;28;20212;-73
2023/08/05 07:51:16;;;;;;;4.28;3.15;;;22.70;99.90;;;;;;5006953;28;20280;-74
2023/08/05 07:53:42;;;;;;;5.47;2.78;;;22.70;99.90;;;;;;5002916;28;20205;-73
2023/08/05 07:56:12;;;;;;;4.80;2.70;;;22.60;99.90;;;;;;5006471;28;20575;-73
2023/08/05 07:58:47;;;;;;;7.93;3.03;;;22.70;99.90;;;;;;5001542;28;20243;-72
2023/08/05 08:01:19;;;;;;;6.20;2.53;;;22.60;99.90;;;;;;5003532;28;20208;-71
2023/08/05 08:03:45;;;;;;;5.88;2.33;;;22.60;99.90;;;;;;4999497;28;20288;-72
2023/08/05 08:06:15;;;;;;;5.82;2.42;;;22.50;99.90;;;;;;5017234;28;20985;-74
2023/08/05 08:08:41;;;;;;;8.98;3.35;;;22.40;99.90;;;;;;5006665;28;20201;-74
2023/08/05 08:11:07;;;;;;;8.05;2.70;;;22.20;99.90;;;;;;5005860;28;20259;-73
2023/08/05 08:13:33;;;;;;;6.18;2.72;;;22.40;99.90;;;;;;5002470;28;20173;-73
2023/08/05 08:15:59;;;;;;;4.07;2.42;;;22.60;99.90;;;;;;5003713;28;20206;-73
2023/08/05 08:18:24;;;;;;;6.00;2.85;;;23.00;99.90;;;;;;5005093;28;20209;-72
2023/08/05 08:20:51;;;;;;;4.38;2.55;;;23.00;99.90;;;;;;5016658;28;20598;-73
2023/08/05 08:23:17;;;;;;;4.47;2.85;;;22.80;99.90;;;;;;5004847;28;20583;-74
2023/08/05 08:25:42;;;;;;;7.28;2.88;;;23.10;99.90;;;;;;5002233;28;20279;-73
2023/08/05 08:28:08;;;;;;;5.50;2.67;;;23.20;99.90;;;;;;5003302;28;20202;-72
2023/08/05 08:30:33;;;;;;;3.88;2.60;;;23.30;99.90;;;;;;5007963;28;20611;-72
2023/08/05 08:32:59;;;;;;;3.42;2.40;;;24.00;99.90;;;;;;5002128;28;20221;-73
2023/08/05 08:35:25;;;;;;;5.88;2.80;;;24.10;99.90;;;;;;5001581;28;20221;-72
2023/08/05 08:37:50;;;;;;;3.65;2.55;;;24.90;99.90;;;;;;5001469;28;20197;-73
2023/08/05 08:40:16;;;;;;;4.68;2.63;;;25.30;99.90;;;;;;5003110;28;20200;-73
2023/08/05 08:42:42;;;;;;;7.13;2.45;;;25.20;99.90;;;;;;5004182;28;20280;-72
2023/08/05 08:45:11;;;;;;;5.75;2.20;;;25.10;99.90;;;;;;5004265;28;20208;-73
2023/08/05 08:47:38;;;;;;;5.43;2.25;;;25.90;99.90;;;;;;5000642;28;20574;-73
2023/08/05 08:50:04;;;;;;;6.07;2.60;;;26.30;99.90;;;;;;5005033;28;20200;-74
2023/08/05 08:52:32;;;;;;;7.90;2.67;;;26.10;99.90;;;;;;5000573;28;20173;-73
2023/08/05 08:54:58;;;;;;;5.13;2.13;;;25.80;99.90;;;;;;5001566;28;20216;-73
2023/08/05 08:57:24;;;;;;;4.30;1.80;;;25.50;99.90;;;;;;5000720;28;20647;-73
2023/08/05 08:59:50;;;;;;;5.03;2.38;;;25.40;99.90;;;;;;5014755;28;20225;-73
2023/08/05 09:02:25;;;;;;;4.45;2.13;;;25.40;99.90;;;;;;5007504;28;20205;-73
2023/08/05 09:04:53;;;;;;;4.57;2.45;;;25.10;99.90;;;;;;5013098;28;20238;-73
2023/08/05 09:07:21;;;;;;;8.38;2.40;;;25.00;99.90;;;;;;5001339;28;20180;-73
2023/08/05 09:09:47;;;;;;;3.85;2.00;;;24.90;99.90;;;;;;5007066;28;20204;-73
2023/08/05 09:12:14;;;;;;;7.68;2.50;;;24.90;99.90;;;;;;5002095;28;20555;-73
2023/08/05 09:14:40;;;;;;;6.13;2.30;;;25.30;99.90;;;;;;5015176;28;20212;-73
2023/08/05 09:17:06;;;;;;;3.17;2.25;;;25.70;99.90;;;;;;5004043;28;20603;-73
2023/08/05 09:19:35;;;;;;;3.90;2.28;;;25.90;99.90;;;;;;5007309;28;20185;-77
2023/08/05 09:22:02;;;;;;;4.75;2.50;;;25.60;99.90;;;;;;5007708;28;20213;-72
2023/08/05 09:24:28;;;;;;;5.75;2.25;;;25.40;99.90;;;;;;5003484;28;20253;-72
2023/08/05 09:26:58;;;;;;;6.35;2.40;;;25.00;99.90;;;;;;5008938;28;20209;-73
2023/08/05 09:29:25;;;;;;;6.68;2.33;;;24.60;99.90;;;;;;5005755;28;20213;-70
2023/08/05 09:32:04;;;;;;;4.07;2.40;;;24.30;99.90;;;;;;5005304;28;20173;-72
2023/08/05 09:34:41;;;;;;;5.25;2.97;;;24.20;99.90;;;;;;5007733;28;20177;-72
2023/08/05 09:37:07;;;;;;;3.85;2.35;;;24.30;99.90;;;;;;5005017;28;20219;-72
2023/08/05 09:39:45;;;;;;;5.57;2.85;;;24.30;99.90;;;;;;5002726;28;20236;-74
2023/08/05 09:42:24;;;;;;;4.53;2.55;;;24.50;99.90;;;;;;5023035;28;20205;-74
2023/08/05 09:44:57;;;;;;;4.05;2.50;;;24.50;99.90;;;;;;5004153;28;20266;-73
2023/08/05 09:47:28;;;;;;;6.07;2.70;;;24.80;99.90;;;;;;4998543;28;20217;-73
2023/08/05 09:49:56;;;;;;;3.38;2.65;;;25.60;99.90;;;;;;5007927;28;20786;-73
2023/08/05 09:52:23;;;;;;;3.40;2.00;;;25.90;99.90;;;;;;5008741;28;20181;-73
2023/08/05 09:55:07;;;;;;;4.57;2.28;;;26.30;99.90;;;;;;5005204;28;20236;-72
2023/08/05 09:57:33;;;;;;;5.38;2.80;;;26.50;99.90;;;;;;5021988;28;20715;-72
2023/08/05 10:00:00;;;;;;;4.90;2.10;;;26.30;99.90;;;;;;5003428;28;20212;-71
2023/08/05 10:02:26;;;;;;;4.20;2.03;;;26.10;99.90;;;;;;5005937;28;20260;-72
2023/08/05 10:04:53;;;;;;;3.50;2.33;;;25.90;99.90;;;;;;5005758;28;20205;-73
2023/08/05 10:07:29;;;;;;;6.22;2.00;;;25.80;99.90;;;;;;5022652;28;20561;-71
2023/08/05 10:09:55;;;;;;;4.18;2.08;;;26.10;99.90;;;;;;5009966;28;20710;-72
2023/08/05 10:12:25;;;;;;;5.00;2.30;;;26.30;99.90;;;;;;5005613;28;20220;-73
2023/08/05 10:14:55;;;;;;;9.38;6.07;;;26.60;99.90;;;;;;5003069;28;20631;-71
2023/08/05 10:17:22;;;;;;;6.25;3.35;;;26.50;99.90;;;;;;5023900;28;20240;-74
2023/08/05 10:19:50;;;;;;;4.80;2.17;;;26.40;99.90;;;;;;5006030;28;20191;-72
2023/08/05 10:22:22;;;;;;;5.30;2.22;;;26.40;99.90;;;;;;5003899;28;20177;-75
2023/08/05 10:24:57;;;;;;;6.30;2.92;;;26.50;99.90;;;;;;5009142;28;20217;-73
2023/08/05 10:27:36;;;;;;;3.72;1.60;;;26.50;99.90;;;;;;5009081;28;20620;-73
2023/08/05 10:30:08;;;;;;;4.40;2.55;;;26.30;99.90;;;;;;5019989;28;20201;-72
2023/08/05 10:32:35;;;;;;;4.57;2.22;;;26.30;99.90;;;;;;5008997;28;20291;-73
2023/08/05 10:35:42;;;;;;;5.43;2.50;;;26.10;99.90;;;;;;5007836;28;20209;-72
2023/08/05 10:38:12;;;;;;;2.80;1.92;;;26.10;99.90;;;;;;5005142;28;20217;-72
2023/08/05 10:40:44;;;;;;;3.88;1.67;;;25.80;99.90;;;;;;5018948;28;20283;-73
2023/08/05 10:43:10;;;;;;;4.85;2.50;;;25.60;99.90;;;;;;5019254;28;20169;-73
2023/08/05 10:45:42;;;;;;;5.25;2.13;;;25.30;99.90;;;;;;5018306;28;20225;-73
2023/08/05 10:48:09;;;;;;;5.00;2.35;;;25.50;99.90;;;;;;5013032;28;20283;-72
2023/08/05 10:50:37;;;;;;;2.10;1.90;;;25.70;99.90;;;;;;5010941;28;20220;-73
2023/08/05 10:53:13;;;;;;;3.97;1.88;;;26.10;99.90;;;;;;5026143;28;20291;-73
2023/08/05 10:55:48;;;;;;;3.75;2.08;;;26.10;99.90;;;;;;5010064;28;20200;-72
2023/08/05 10:58:23;;;;;;;4.13;2.60;;;26.10;99.90;;;;;;5011190;28;20505;-73
2023/08/05 11:01:00;;;;;;;7.60;3.50;;;25.90;99.90;;;;;;5023870;28;20209;-73
2023/08/05 11:03:48;;;;;;;5.78;2.90;;;25.70;99.90;;;;;;5016404;28;20209;-73
2023/08/05 11:06:22;;;;;;;4.65;3.28;;;25.70;99.90;;;;;;5012689;28;20330;-73
2023/08/05 11:08:48;;;;;;;5.40;2.17;;;25.70;99.90;;;;;;5006682;28;20212;-72
2023/08/05 11:11:14;;;;;;;4.82;2.15;;;25.70;99.90;;;;;;5010145;28;20232;-73
2023/08/05 11:13:42;;;;;;;5.32;2.58;;;25.70;99.90;;;;;;5004568;28;20547;-74
2023/08/05 11:16:12;;;;;;;5.10;2.53;;;25.60;99.90;;;;;;5010331;28;20181;-71
2023/08/05 11:18:40;;;;;;;5.45;2.25;;;25.70;99.90;;;;;;5003892;28;20586;-73
2023/08/05 11:21:08;;;;;;;3.35;2.45;;;25.90;99.90;;;;;;5001260;28;20564;-73
2023/08/05 11:23:39;;;;;;;7.65;3.65;;;25.70;99.90;;;;;;5009300;28;20217;-73
2023/08/05 11:26:06;;;;;;;10.50;6.30;;;25.60;99.90;;;;;;5007104;28;20347;-73
2023/08/05 11:28:32;;;;;;;5.95;3.17;;;25.80;99.90;;;;;;5011781;28;20180;-74
2023/08/05 11:31:00;;;;;;;3.95;2.10;;;25.90;99.90;;;;;;5001960;28;20209;-74
2023/08/05 11:33:27;;;;;;;3.83;2.38;;;25.90;99.90;;;;;;5005210;28;20783;-74
2023/08/05 11:35:53;;;;;;;4.00;2.00;;;26.10;99.90;;;;;;5019851;28;20283;-74
2023/08/05 11:38:20;;;;;;;4.13;1.98;;;26.20;99.90;;;;;;5004500;28;20209;-74
2023/08/05 11:40:48;;;;;;;4.25;2.13;;;26.20;99.90;;;;;;5004638;28;20188;-72
2023/08/05 11:43:19;;;;;;;5.85;3.05;;;26.20;99.90;;;;;;5006762;28;20194;-74
2023/08/05 11:45:45;;;;;;;4.72;2.72;;;26.20;99.90;;;;;;5020551;28;20216;-73
2023/08/05 11:48:25;;;;;;;10.63;5.55;;;26.10;99.90;;;;;;5008690;28;20255;-73
2023/08/05 11:50:59;;;;;;;4.32;2.60;;;26.20;99.90;;;;;;5004315;28;20209;-74
2023/08/05 11:53:26;;;;;;;2.90;1.90;;;26.10;99.90;;;;;;5009117;28;20219;-74
2023/08/05 11:55:52;;;;;;;2.45;2.00;;;26.40;99.90;;;;;;5005646;28;20216;-73
2023/08/05 11:58:18;;;;;;;3.58;1.90;;;26.50;99.90;;;;;;5006130;28;20205;-74
2023/08/05 12:00:51;;;;;;;2.47;1.75;;;26.60;99.90;;;;;;5006932;28;20553;-73
2023/08/05 12:03:17;;;;;;;4.22;2.17;;;26.30;99.90;;;;;;5006350;28;20217;-74
2023/08/05 12:05:46;;;;;;;3.30;2.30;;;26.00;99.90;;;;;;5005036;28;20227;-73
2023/08/05 12:08:13;;;;;;;3.38;1.95;;;26.00;99.90;;;;;;5003869;28;20940;-73
2023/08/05 12:10:39;;;;;;;4.03;2.00;;;26.20;99.90;;;;;;5008176;28;20166;-73
2023/08/05 12:13:09;;;;;;;2.88;2.33;;;26.30;99.90;;;;;;5022170;28;20261;-73
2023/08/05 12:15:35;;;;;;;2.92;2.05;;;25.90;99.90;;;;;;5008661;28;20213;-73
2023/08/05 12:18:03;;;;;;;3.58;2.03;;;25.30;99.90;;;;;;5008495;28;20362;-73
2023/08/05 12:20:33;;;;;;;3.05;2.10;;;25.20;99.90;;;;;;5006209;28;20866;-74
2023/08/05 12:22:59;;;;;;;2.58;2.15;;;25.10;99.90;;;;;;5005856;28;20245;-73
2023/08/05 12:25:28;;;;;;;2.20;1.80;;;25.30;99.90;;;;;;5008186;28;20198;-75
2023/08/05 12:27:54;;;;;;;6.25;2.35;;;25.40;99.90;;;;;;5004174;28;20692;-74
2023/08/05 12:30:20;;;;;;;4.90;3.10;;;25.30;99.90;;;;;;5005909;28;20296;-74
2023/08/05 12:32:46;;;;;;;5.15;2.50;;;25.30;99.90;;;;;;5006850;28;20220;-75
2023/08/05 12:35:12;;;;;;;5.30;3.00;;;25.30;99.90;;;;;;5004240;28;20228;-74
2023/08/05 12:37:39;;;;;;;5.47;3.50;;;25.40;99.90;;;;;;5008209;28;20235;-74
2023/08/05 12:40:12;;;;;;;4.95;2.47;;;25.50;99.90;;;;;;5006421;28;20180;-75
2023/08/05 12:42:38;;;;;;;5.43;2.65;;;25.50;99.90;;;;;;5006997;28;20297;-74
2023/08/05 12:45:05;;;;;;;4.25;2.03;;;25.50;99.90;;;;;;5008486;28;20298;-74
2023/08/05 12:47:31;;;;;;;2.70;1.98;;;25.10;99.90;;;;;;5008124;28;20683;-75